createdAt,value
2018-08-04T00:02:12.669Z,51.50
2018-08-04T00:04:41.196Z,51.70
2018-08-04T00:07:09.598Z,51.70
2018-08-04T00:09:38.000Z,51.70
2018-08-04T00:12:06.405Z,51.60
2018-08-04T00:14:37.873Z,51.70
2018-08-04T00:17:06.316Z,51.60
2018-08-04T00:22:02.823Z,51.50
2018-08-04T00:24:31.249Z,51.40
2018-08-04T00:26:59.644Z,51.50
2018-08-04T00:29:28.047Z,51.50
2018-08-04T00:31:56.519Z,51.50
2018-08-04T00:34:24.980Z,51.50
2018-08-04T00:36:53.723Z,51.50
2018-08-04T00:39:22.702Z,51.50
2018-08-04T00:41:51.173Z,51.60
2018-08-04T00:44:19.593Z,51.60
2018-08-04T00:46:48.023Z,51.50
2018-08-04T00:49:16.496Z,51.50
2018-08-04T00:54:13.157Z,51.40
2018-08-04T00:56:41.569Z,51.40
2018-08-04T00:59:10.031Z,51.30
2018-08-04T01:01:38.508Z,51.20
2018-08-04T01:06:35.030Z,51.40
2018-08-04T01:09:04.087Z,51.40
2018-08-04T01:11:32.516Z,51.50
2018-08-04T01:14:00.967Z,51.50
2018-08-04T01:16:29.391Z,51.40
2018-08-04T01:18:57.770Z,51.40
2018-08-04T01:21:26.181Z,51.40
2018-08-04T01:23:54.675Z,51.40
2018-08-04T01:26:23.111Z,51.60
2018-08-04T01:28:51.668Z,52.20
2018-08-04T01:31:20.122Z,51.70
2018-08-04T01:33:48.560Z,51.50
2018-08-04T01:36:17.027Z,51.60
2018-08-04T01:38:45.490Z,51.40
2018-08-04T01:41:13.923Z,51.60
2018-08-04T01:43:42.444Z,51.60
2018-08-04T01:46:10.896Z,51.60
2018-08-04T01:48:39.295Z,51.80
2018-08-04T01:51:07.690Z,51.80
2018-08-04T01:53:36.210Z,51.60
2018-08-04T01:56:14.513Z,51.80
2018-08-04T01:58:42.936Z,51.80
2018-08-04T02:01:11.358Z,51.80
2018-08-04T02:03:39.785Z,51.70
2018-08-04T02:06:08.218Z,51.70
2018-08-04T02:08:36.616Z,51.70
2018-08-04T02:11:05.052Z,51.70
2018-08-04T02:13:33.828Z,51.80
2018-08-04T02:16:02.241Z,51.90
2018-08-04T02:18:30.656Z,51.90
2018-08-04T02:20:59.088Z,51.90
2018-08-04T02:23:27.520Z,52.10
2018-08-04T02:25:55.947Z,52.30
2018-08-04T02:28:24.387Z,52.40
2018-08-04T02:30:52.787Z,52.40
2018-08-04T02:33:21.191Z,52.40
2018-08-04T02:35:49.607Z,52.30
2018-08-04T02:38:18.128Z,52.30
2018-08-04T02:40:46.558Z,52.20
2018-08-04T02:43:15.007Z,52.10
2018-08-04T02:45:43.458Z,52.10
2018-08-04T02:48:11.844Z,52.10
2018-08-04T02:50:40.249Z,52.10
2018-08-04T02:55:36.834Z,52.30
2018-08-04T02:58:05.559Z,52.40
2018-08-04T03:00:34.208Z,52.70
2018-08-04T03:03:02.623Z,52.80
2018-08-04T03:05:31.048Z,52.80
2018-08-04T03:07:59.496Z,52.80
2018-08-04T03:10:27.894Z,52.80
2018-08-04T03:12:56.327Z,52.80
2018-08-04T03:15:24.719Z,52.80
2018-08-04T03:17:53.128Z,52.80
2018-08-04T03:20:21.562Z,52.90
2018-08-04T03:22:49.954Z,53.10
2018-08-04T03:25:18.364Z,53.10
2018-08-04T03:27:46.798Z,53.00
2018-08-04T03:30:15.178Z,53.10
2018-08-04T03:32:43.618Z,53.30
2018-08-04T03:35:12.043Z,53.20
2018-08-04T03:37:40.489Z,53.30
2018-08-04T03:40:08.895Z,53.30
2018-08-04T03:42:37.391Z,53.30
2018-08-04T03:45:05.774Z,53.30
2018-08-04T03:47:34.179Z,53.50
2018-08-04T03:50:02.615Z,53.80
2018-08-04T03:52:31.130Z,54.50
2018-08-04T03:55:02.438Z,54.40
2018-08-04T03:57:31.034Z,54.40
2018-08-04T04:02:27.659Z,54.30
2018-08-04T04:04:56.079Z,54.80
2018-08-04T04:07:24.440Z,54.20
2018-08-04T04:09:52.840Z,54.30
2018-08-04T04:12:21.234Z,54.30
2018-08-04T04:17:17.853Z,54.90
2018-08-04T04:19:46.371Z,54.30
2018-08-04T04:22:14.783Z,54.50
2018-08-04T04:24:43.168Z,54.80
2018-08-04T04:27:11.588Z,55.00
2018-08-04T04:29:39.978Z,55.10
2018-08-04T04:32:08.502Z,55.20
2018-08-04T04:34:37.199Z,55.20
2018-08-04T04:37:05.655Z,55.30
2018-08-04T04:39:34.022Z,55.40
2018-08-04T04:42:02.430Z,55.70
2018-08-04T04:44:30.882Z,55.80
2018-08-04T04:46:59.314Z,55.70
2018-08-04T04:49:27.736Z,55.60
2018-08-04T04:51:56.131Z,55.60
2018-08-04T04:54:24.548Z,55.50
2018-08-04T04:56:53.002Z,55.40
2018-08-04T04:59:21.398Z,55.10
2018-08-04T05:01:49.806Z,55.50
2018-08-04T05:04:18.206Z,55.60
2018-08-04T05:06:46.607Z,55.60
2018-08-04T05:09:14.988Z,56.30
2018-08-04T05:11:43.434Z,55.70
2018-08-04T05:14:11.903Z,55.70
2018-08-04T05:16:40.401Z,55.70
2018-08-04T05:19:08.826Z,55.60
2018-08-04T05:21:37.244Z,55.90
2018-08-04T05:24:05.806Z,55.70
2018-08-04T05:26:34.207Z,55.60
2018-08-04T05:29:02.615Z,55.50
2018-08-04T05:31:31.035Z,55.60
2018-08-04T05:33:59.448Z,56.30
2018-08-04T05:36:27.843Z,55.70
2018-08-04T05:38:56.244Z,55.60
2018-08-04T05:41:24.672Z,55.70
2018-08-04T05:43:53.071Z,55.60
2018-08-04T05:46:24.579Z,55.50
2018-08-04T05:48:55.039Z,55.40
2018-08-04T05:51:23.456Z,55.40
2018-08-04T05:53:52.078Z,55.40
2018-08-04T05:56:20.500Z,55.40
2018-08-04T05:58:48.891Z,55.50
2018-08-04T06:01:17.358Z,55.60
2018-08-04T06:03:45.822Z,55.60
2018-08-04T06:06:14.300Z,55.90
2018-08-04T06:08:42.716Z,55.70
2018-08-04T06:11:11.156Z,56.30
2018-08-04T06:13:39.771Z,57.30
2018-08-04T06:16:08.569Z,56.80
2018-08-04T06:18:36.998Z,57.10
2018-08-04T06:21:05.390Z,56.20
2018-08-04T06:23:33.790Z,55.40
2018-08-04T06:26:02.195Z,55.20
2018-08-04T06:28:30.564Z,55.10
2018-08-04T06:30:58.980Z,54.80
2018-08-04T06:33:27.708Z,54.20
2018-08-04T06:35:56.066Z,53.90
2018-08-04T06:38:24.450Z,54.10
2018-08-04T06:40:52.880Z,54.40
2018-08-04T06:43:21.287Z,54.00
2018-08-04T06:45:49.691Z,54.40
2018-08-04T06:48:18.244Z,53.80
2018-08-04T06:50:46.694Z,54.10
2018-08-04T06:53:15.092Z,53.80
2018-08-04T06:55:43.523Z,53.60
2018-08-04T06:58:11.983Z,53.50
2018-08-04T07:00:40.357Z,53.50
2018-08-04T07:03:08.757Z,53.30
2018-08-04T07:05:37.415Z,53.20
2018-08-04T07:08:06.095Z,53.50
2018-08-04T07:10:34.749Z,53.20
2018-08-04T07:13:06.312Z,52.90
2018-08-04T07:15:38.483Z,52.80
2018-08-04T07:18:06.886Z,52.90
2018-08-04T07:20:35.287Z,52.60
2018-08-04T07:23:03.715Z,52.10
2018-08-04T07:25:32.108Z,52.40
2018-08-04T07:28:00.628Z,52.40
2018-08-04T07:30:29.032Z,52.50
2018-08-04T07:32:57.451Z,52.60
2018-08-04T07:35:25.828Z,52.50
2018-08-04T07:37:54.295Z,52.60
2018-08-04T07:40:22.746Z,52.60
2018-08-04T07:42:51.219Z,53.10
2018-08-04T07:45:19.623Z,52.60
2018-08-04T07:47:48.040Z,53.00
2018-08-04T07:50:16.459Z,53.20
2018-08-04T07:52:44.877Z,53.40
2018-08-04T07:55:13.286Z,53.40
2018-08-04T07:57:41.678Z,53.20
2018-08-04T08:00:10.140Z,53.00
2018-08-04T08:02:38.556Z,53.50
2018-08-04T08:05:07.212Z,53.60
2018-08-04T08:07:35.664Z,53.10
2018-08-04T08:10:04.112Z,52.80
2018-08-04T08:12:32.537Z,52.70
2018-08-04T08:15:01.018Z,52.60
2018-08-04T08:17:29.433Z,52.60
2018-08-04T08:19:57.850Z,53.00
2018-08-04T08:22:35.530Z,52.30
2018-08-04T08:25:04.590Z,52.50
2018-08-04T08:27:33.057Z,52.50
2018-08-04T08:30:01.567Z,52.00
2018-08-04T08:32:29.999Z,51.70
2018-08-04T08:34:58.754Z,51.50
2018-08-04T08:37:27.175Z,51.50
2018-08-04T08:39:55.620Z,51.40
2018-08-04T08:42:24.035Z,50.40
2018-08-04T08:44:52.534Z,50.40
2018-08-04T08:47:20.963Z,50.30
2018-08-04T08:49:49.494Z,50.50
2018-08-04T08:52:18.028Z,50.10
2018-08-04T08:54:46.617Z,50.10
2018-08-04T08:57:15.016Z,50.30
2018-08-04T08:59:43.501Z,50.10
2018-08-04T09:02:11.934Z,50.10
2018-08-04T09:04:40.336Z,50.00
2018-08-04T09:07:08.794Z,50.00
2018-08-04T09:09:37.239Z,50.00
2018-08-04T09:12:05.662Z,50.80
2018-08-04T09:14:34.074Z,51.40
2018-08-04T09:19:30.610Z,50.30
2018-08-04T09:21:59.064Z,50.80
2018-08-04T09:24:27.459Z,50.60
2018-08-04T09:26:55.879Z,50.00
2018-08-04T09:29:24.292Z,50.00
2018-08-04T09:31:52.703Z,49.40
2018-08-04T09:34:21.117Z,49.60
2018-08-04T09:36:49.545Z,49.90
2018-08-04T09:39:17.929Z,49.50
2018-08-04T09:41:46.310Z,49.50
2018-08-04T09:44:14.733Z,49.30
2018-08-04T09:46:43.192Z,49.00
2018-08-04T09:49:11.663Z,49.60
2018-08-04T09:51:40.079Z,48.70
2018-08-04T09:54:11.702Z,48.60
2018-08-04T09:56:40.091Z,49.50
2018-08-04T09:59:08.488Z,49.00
2018-08-04T10:01:37.967Z,48.20
2018-08-04T10:04:06.978Z,48.30
2018-08-04T10:06:35.559Z,48.30
2018-08-04T10:09:05.658Z,48.20
2018-08-04T10:11:34.083Z,48.00
2018-08-04T10:14:02.661Z,48.00
2018-08-04T10:16:31.071Z,47.80
2018-08-04T10:18:59.471Z,47.60
2018-08-04T10:21:27.892Z,47.10
2018-08-04T10:23:56.287Z,47.00
2018-08-04T10:26:25.079Z,47.40
2018-08-04T10:28:53.491Z,47.40
2018-08-04T10:31:22.287Z,46.70
2018-08-04T10:33:50.720Z,46.50
2018-08-04T10:36:19.156Z,46.40
2018-08-04T10:38:47.534Z,46.00
2018-08-04T10:41:15.956Z,46.10
2018-08-04T10:43:44.380Z,45.90
2018-08-04T10:46:12.803Z,45.80
2018-08-04T10:48:41.171Z,45.80
2018-08-04T10:51:09.595Z,45.80
2018-08-04T10:53:37.988Z,45.70
2018-08-04T10:56:06.528Z,46.00
2018-08-04T10:58:34.969Z,46.10
2018-08-04T11:01:03.376Z,46.20
2018-08-04T11:03:31.892Z,46.30
2018-08-04T11:06:00.328Z,47.00
2018-08-04T11:08:28.740Z,47.00
2018-08-04T11:10:57.162Z,47.00
2018-08-04T11:13:25.956Z,47.70
2018-08-04T11:15:54.528Z,47.10
2018-08-04T11:18:22.918Z,47.00
2018-08-04T11:20:51.318Z,47.00
2018-08-04T11:23:19.675Z,47.60
2018-08-04T11:25:48.059Z,47.40
2018-08-04T11:28:16.984Z,47.60
2018-08-04T11:30:45.445Z,47.40
2018-08-04T11:33:13.813Z,47.90
2018-08-04T11:35:42.256Z,48.00
2018-08-04T11:38:10.659Z,47.60
2018-08-04T11:40:39.054Z,47.40
2018-08-04T11:43:07.486Z,47.40
2018-08-04T11:48:04.255Z,47.40
2018-08-04T11:50:32.641Z,47.10
2018-08-04T11:53:01.001Z,46.70
2018-08-04T11:55:29.367Z,46.70
2018-08-04T11:57:57.769Z,47.10
2018-08-04T12:00:26.206Z,46.60
2018-08-04T12:02:54.951Z,46.50
2018-08-04T12:05:23.452Z,46.50
2018-08-04T12:07:51.842Z,46.40
2018-08-04T12:10:20.288Z,46.30
2018-08-04T12:12:48.927Z,46.00
2018-08-04T12:15:18.108Z,46.30
2018-08-04T12:17:46.561Z,46.50
2018-08-04T12:20:15.284Z,46.30
2018-08-04T12:22:43.689Z,46.30
2018-08-04T12:25:12.103Z,46.20
2018-08-04T12:27:40.536Z,46.20
2018-08-04T12:30:09.533Z,47.00
2018-08-04T12:32:38.218Z,47.90
2018-08-04T12:35:10.435Z,48.10
2018-08-04T12:37:39.228Z,48.30
2018-08-04T12:40:07.751Z,49.20
2018-08-04T12:42:36.219Z,48.80
2018-08-04T12:45:04.695Z,48.60
2018-08-04T12:47:33.127Z,48.70
2018-08-04T12:50:01.556Z,50.00
2018-08-04T12:52:29.988Z,51.00
2018-08-04T12:54:58.437Z,50.80
2018-08-04T12:57:27.438Z,50.80
2018-08-04T12:59:55.904Z,50.70
2018-08-04T13:02:24.371Z,51.30
2018-08-04T13:04:52.835Z,52.10
2018-08-04T13:07:21.529Z,52.80
2018-08-04T13:09:50.040Z,52.10
2018-08-04T13:12:18.491Z,52.00
2018-08-04T13:14:46.943Z,51.60
2018-08-04T13:17:22.594Z,52.00
2018-08-04T13:19:52.365Z,53.70
2018-08-04T13:22:32.833Z,53.80
2018-08-04T13:25:02.701Z,53.30
2018-08-04T13:27:32.385Z,52.90
2018-08-04T13:30:01.882Z,53.00
2018-08-04T13:32:30.457Z,54.20
2018-08-04T13:34:59.912Z,54.90
2018-08-04T13:37:28.390Z,54.20
2018-08-04T13:39:56.832Z,53.60
2018-08-04T13:42:25.299Z,53.10
2018-08-04T13:44:53.702Z,54.00
2018-08-04T13:47:22.109Z,55.20
2018-08-04T13:49:50.511Z,54.70
2018-08-04T13:52:19.558Z,54.60
2018-08-04T13:54:48.139Z,53.60
2018-08-04T13:57:16.749Z,53.30
2018-08-04T13:59:45.206Z,53.00
2018-08-04T14:02:13.631Z,52.50
2018-08-04T14:04:42.064Z,52.70
2018-08-04T14:07:10.493Z,52.90
2018-08-04T14:09:38.955Z,52.20
2018-08-04T14:12:07.687Z,51.70
2018-08-04T14:14:36.224Z,51.60
2018-08-04T14:17:04.635Z,51.60
2018-08-04T14:19:33.245Z,51.40
2018-08-04T14:22:01.694Z,51.40
2018-08-04T14:24:30.216Z,51.20
2018-08-04T14:26:58.643Z,51.20
2018-08-04T14:29:27.031Z,51.40
2018-08-04T14:31:55.580Z,51.50
2018-08-04T14:34:24.016Z,51.30
2018-08-04T14:36:52.551Z,51.30
2018-08-04T14:39:21.015Z,51.20
2018-08-04T14:41:49.459Z,51.00
2018-08-04T14:44:17.879Z,51.30
2018-08-04T14:46:46.278Z,51.10
2018-08-04T14:49:14.675Z,51.30
2018-08-04T14:51:43.069Z,51.80
2018-08-04T14:54:11.483Z,51.20
2018-08-04T14:56:39.920Z,51.30
2018-08-04T14:59:08.375Z,50.40
2018-08-04T15:01:37.011Z,50.50
2018-08-04T15:04:05.754Z,51.00
2018-08-04T15:06:34.359Z,50.90
2018-08-04T15:11:30.899Z,51.10
2018-08-04T15:13:59.311Z,50.80
2018-08-04T15:16:27.836Z,50.70
2018-08-04T15:18:56.401Z,50.70
2018-08-04T15:21:24.816Z,50.70
2018-08-04T15:23:53.252Z,50.70
2018-08-04T15:28:50.059Z,51.30
2018-08-04T15:31:18.587Z,52.90
2018-08-04T15:33:47.020Z,54.00
2018-08-04T15:36:15.413Z,51.30
2018-08-04T15:38:43.868Z,50.70
2018-08-04T15:41:12.488Z,50.80
2018-08-04T15:43:43.192Z,51.20
2018-08-04T15:46:11.677Z,54.30
2018-08-04T15:48:40.144Z,54.60
2018-08-04T15:51:08.621Z,56.20
2018-08-04T15:53:37.212Z,57.20
2018-08-04T15:56:06.382Z,57.70
2018-08-04T15:58:35.145Z,57.30
2018-08-04T16:01:04.159Z,58.70
2018-08-04T16:03:32.641Z,58.40
2018-08-04T16:06:04.976Z,59.50
2018-08-04T16:08:33.469Z,61.10
2018-08-04T16:11:01.929Z,61.70
2018-08-04T16:13:30.391Z,62.30
2018-08-04T16:15:58.868Z,61.60
2018-08-04T16:20:55.445Z,60.80
2018-08-04T16:23:23.919Z,58.90
2018-08-04T16:25:52.341Z,59.40
2018-08-04T16:28:20.890Z,59.40
2018-08-04T16:30:49.398Z,58.70
2018-08-04T16:33:36.233Z,58.90
2018-08-04T16:36:04.726Z,58.70
2018-08-04T16:38:33.168Z,58.90
2018-08-04T16:41:01.629Z,58.90
2018-08-04T16:43:30.101Z,59.40
2018-08-04T16:45:58.885Z,58.70
2018-08-04T16:48:27.360Z,58.50
2018-08-04T16:50:55.812Z,58.20
2018-08-04T16:53:24.552Z,58.40
2018-08-04T16:55:53.063Z,58.20
2018-08-04T16:58:21.852Z,58.40
2018-08-04T17:00:50.319Z,58.60
2018-08-04T17:03:19.220Z,58.60
2018-08-04T17:05:48.558Z,59.10
2018-08-04T17:08:18.389Z,59.80
2018-08-04T17:10:48.407Z,60.20
2018-08-04T17:13:17.010Z,60.60
2018-08-04T17:15:45.490Z,60.90
2018-08-04T17:18:13.983Z,60.60
2018-08-04T17:20:42.477Z,61.10
2018-08-04T17:23:10.952Z,61.40
2018-08-04T17:25:40.455Z,61.40
2018-08-04T17:28:10.065Z,60.80
2018-08-04T17:30:39.735Z,59.90
2018-08-04T17:33:12.357Z,59.40
2018-08-04T17:35:41.661Z,59.00
2018-08-04T17:38:11.163Z,59.00
2018-08-04T17:40:40.434Z,59.20
2018-08-04T17:43:08.902Z,59.10
2018-08-04T17:45:38.335Z,59.50
2018-08-04T17:48:07.936Z,60.00
2018-08-04T17:50:36.657Z,60.00
2018-08-04T17:53:05.479Z,60.00
2018-08-04T17:55:34.705Z,59.90
2018-08-04T17:58:03.986Z,59.60
2018-08-04T18:00:33.728Z,59.30
2018-08-04T18:03:02.174Z,59.10
2018-08-04T18:05:30.594Z,58.80
2018-08-04T18:07:59.012Z,58.80
2018-08-04T18:10:27.763Z,58.70
2018-08-04T18:12:56.170Z,58.40
2018-08-04T18:15:24.581Z,58.00
2018-08-04T18:17:53.185Z,58.00
2018-08-04T18:20:21.606Z,57.80
2018-08-04T18:22:50.277Z,57.70
2018-08-04T18:25:18.862Z,57.60
2018-08-04T18:27:48.267Z,57.50
2018-08-04T18:30:16.863Z,57.40
2018-08-04T18:32:45.431Z,57.50
2018-08-04T18:35:13.849Z,57.70
2018-08-04T18:37:42.275Z,57.60
2018-08-04T18:40:10.751Z,57.30
2018-08-04T18:42:39.166Z,57.00
2018-08-04T18:45:07.995Z,56.40
2018-08-04T18:47:36.449Z,57.00
2018-08-04T18:50:13.524Z,56.40
2018-08-04T18:52:49.142Z,56.30
2018-08-04T18:55:22.648Z,56.10
2018-08-04T18:57:51.081Z,56.00
2018-08-04T19:00:19.475Z,55.80
2018-08-04T19:02:47.896Z,55.90
2018-08-04T19:05:16.353Z,55.60
2018-08-04T19:07:44.770Z,55.40
2018-08-04T19:10:13.227Z,55.10
2018-08-04T19:12:41.628Z,55.00
2018-08-04T19:15:10.008Z,54.70
2018-08-04T19:17:38.436Z,54.30
2018-08-04T19:20:06.846Z,54.50
2018-08-04T19:22:35.227Z,54.30
2018-08-04T19:25:03.840Z,54.30
2018-08-04T19:27:32.251Z,54.20
2018-08-04T19:30:00.721Z,54.00
2018-08-04T19:32:29.118Z,54.10
2018-08-04T19:34:57.612Z,54.10
2018-08-04T19:39:57.250Z,53.70
2018-08-04T19:42:25.691Z,53.30
2018-08-04T19:44:54.121Z,53.10
2018-08-04T19:50:20.365Z,53.20
2018-08-04T19:52:48.935Z,53.10
2018-08-04T19:55:17.622Z,52.90
2018-08-04T19:57:46.404Z,52.80
2018-08-04T20:00:14.826Z,53.00
2018-08-04T20:02:43.284Z,53.10
2018-08-04T20:05:11.730Z,53.00
2018-08-04T20:07:40.152Z,52.90
2018-08-04T20:10:08.539Z,52.80
2018-08-04T20:12:36.927Z,52.90
2018-08-04T20:15:07.035Z,52.90
2018-08-04T20:17:35.696Z,52.90
2018-08-04T20:20:05.648Z,52.80
2018-08-04T20:22:34.101Z,52.60
2018-08-04T20:25:30.932Z,52.50
2018-08-04T20:28:05.535Z,52.60
2018-08-04T20:30:34.843Z,52.70
2018-08-04T20:33:06.693Z,52.70
2018-08-04T20:35:35.198Z,52.80
2018-08-04T20:38:03.609Z,52.90
2018-08-04T20:40:32.032Z,52.90
2018-08-04T20:43:06.304Z,53.00
2018-08-04T20:45:35.714Z,53.10
2018-08-04T20:48:11.167Z,53.00
2018-08-04T20:50:39.641Z,53.10
2018-08-04T20:53:08.052Z,53.30
2018-08-04T20:55:36.792Z,53.50
2018-08-04T20:58:05.253Z,53.70
2018-08-04T21:00:40.479Z,53.70
2018-08-04T21:03:10.365Z,53.90
2018-08-04T21:05:39.542Z,55.10
2018-08-04T21:08:08.149Z,56.20
2018-08-04T21:10:36.582Z,57.30
2018-08-04T21:13:04.974Z,58.30
2018-08-04T21:15:33.458Z,59.40
2018-08-04T21:18:02.573Z,60.00
2018-08-04T21:20:30.960Z,60.50
2018-08-04T21:22:59.388Z,60.80
2018-08-04T21:25:27.890Z,60.80
2018-08-04T21:27:56.283Z,60.30
2018-08-04T21:30:24.679Z,59.80
2018-08-04T21:32:53.147Z,59.80
2018-08-04T21:35:21.619Z,60.00
2018-08-04T21:37:50.536Z,60.60
2018-08-04T21:40:18.914Z,62.00
2018-08-04T21:42:47.328Z,63.60
2018-08-04T21:45:15.771Z,63.40
2018-08-04T21:47:44.136Z,62.10
2018-08-04T21:50:12.564Z,60.80
2018-08-04T21:52:40.955Z,59.70
2018-08-04T21:55:09.379Z,59.10
2018-08-04T21:57:39.279Z,58.70
2018-08-04T22:00:11.252Z,58.60
2018-08-04T22:02:49.674Z,58.40
2018-08-04T22:05:18.057Z,58.40
2018-08-04T22:07:58.275Z,58.40
2018-08-04T22:10:26.683Z,58.20
2018-08-04T22:12:55.277Z,58.10
2018-08-04T22:15:23.929Z,58.00
2018-08-04T22:17:52.407Z,60.00
2018-08-04T22:20:21.847Z,63.00
2018-08-04T22:22:50.683Z,63.60
2018-08-04T22:25:20.482Z,64.60
2018-08-04T22:27:48.954Z,65.60
2018-08-04T22:30:18.624Z,65.90
2018-08-04T22:32:47.563Z,66.20
2018-08-04T22:35:16.031Z,66.70
2018-08-04T22:37:44.550Z,66.90
2018-08-04T22:40:14.097Z,67.10
2018-08-04T22:42:42.860Z,67.20
2018-08-04T22:45:50.109Z,66.30
2018-08-04T22:48:18.773Z,65.40
2018-08-04T22:50:47.195Z,65.90
2018-08-04T22:53:15.949Z,66.50
2018-08-04T22:55:44.305Z,66.60
2018-08-04T22:58:12.666Z,66.90
2018-08-04T23:00:42.373Z,67.30
2018-08-04T23:03:11.330Z,67.10
2018-08-04T23:05:39.797Z,66.90
2018-08-04T23:08:08.513Z,66.80
2018-08-04T23:10:37.790Z,67.10
2018-08-04T23:13:06.320Z,67.30
2018-08-04T23:15:34.723Z,67.60
2018-08-04T23:18:03.101Z,67.10
2018-08-04T23:20:31.505Z,66.80
2018-08-04T23:23:00.342Z,67.10
2018-08-04T23:25:28.822Z,67.00
2018-08-04T23:27:57.222Z,66.40
2018-08-04T23:30:25.610Z,65.50
2018-08-04T23:32:54.369Z,65.80
2018-08-04T23:35:24.214Z,66.30
2018-08-04T23:37:52.817Z,66.50
2018-08-04T23:40:21.675Z,65.70
2018-08-04T23:42:50.114Z,65.50
2018-08-04T23:45:18.557Z,65.10
2018-08-04T23:47:46.963Z,64.90
2018-08-04T23:50:15.572Z,65.10
2018-08-04T23:52:44.071Z,65.10
2018-08-04T23:55:12.466Z,65.50
